Cottonwood Pass, CO

10:01 PM MDT on July 24, 2017 (GMT -0600)
Saint Elmo Ghost Town 10052 ft | | Change Station

Elev 10052 ft 38.71 °N, 106.35 °W | Updated 35 seconds ago

Scattered Clouds
Scattered Clouds
--
Feels Like --
N
0.0
Wind Variable Wind from North
Gusts 0.0 mph

Today
High -- | Low -- °F
--% Chance of Precip.
Yesterday
High -- | Low -- °F
Precip. -- in
Pressure 30.34 in
Visibility 10.0 miles
Clouds Scattered Clouds 9000 ft
Scattered Clouds 12000 ft
Dew Point Not available.
Humidity Not available.
Rainfall Not available.
Snow Depth Not available.
6:00 AM 8:23 PM
Waxing Crescent, 4% visible
METAR KAEJ 250355Z AUTO 25004KT 10SM SCT090 SCT120 19/08 A3034 RMK AO2 T01900082
Pressure 30.34 in
Visibility 10.0 miles
Clouds Scattered Clouds 9000 ft
Scattered Clouds 12000 ft
Dew Point Not available.
Humidity Not available.
Rainfall Not available.
Snow Depth Not available.
6:00 AM 8:23 PM
Waxing Crescent, 4% visible
METAR KAEJ 250355Z AUTO 25004KT 10SM SCT090 SCT120 19/08 A3034 RMK AO2 T01900082

Get Severe Weather Alerts

Thanks for signing up!

Be on the lookout for a verification email in your inbox.

You'll start receiving the daily forecast at 6 AM.

×

10-Day Weather Forecast

Almanac

Astronomy

Jul. 24, 2017 Rise Set
Actual Time
Civil Twilight
Nautical Twilight
Astronomical Twilight
Moon
Length of Visible Light
Length of Day
Tomorrow will be .
, % of the Moon is Illuminated

Today's Extremes

State Highs State Lows

Community

WunderPhotos

Category 6

Welcome to Category 6. This is the collective home for Weather Underground's featured writeups by Dr. Jeff Masters (right), Bob Henson (left), Chris Burt, and other regular contributors.

Nearby

Air Quality

  Air Quality AQ Index Pollutant
Not available.

Snow Depth

Station Depth Elevation

Earthquake Activity

City Distance Mag. Time & Date
Minimum magnitude displayed is 2.5.

Coastal Water Temperatures

Place Temperature

Stations

Nearby Weather Stations

Station Location Temp. Windchill Dew Point Humidity Wind Precip. Elev Updated Type
                   

Watches & Warnings

There are currently no watches in effect.